»·PEaware :: N65415 KBUR-KLAS

N65415 :: KBUR-KLAS

FLIGHT INFORMATION

Flight Status: Arrived
Operator: Privately registered:
United States
More flights under this callsign
Pilot: Stephane C. (508)
Aircraft: CESSNA 172 SKYHAWK
(C172)
More flights by this aircraft type
Origin: KBUR Bob Hope-Burbank
United States
Destination: KLAS McCarran Intl
United States
More flights between these airports :: More routes between these airports
Route: +VNY3 DAG CRESO3
File this flight plan on PilotEdge
Remarks: I5 rating
Altitude:
(Current/Filed)
11,000ft
Speed:
(Current/Filed)
116kts
Departed: 25-Nov-17 08:37 AM
Arrived: 25-Nov-17 10:38 AM
Distance/Time
Traveled:
193nm/2:01
Distance/Time
To Go:
Arrived

Flight Plot

Page will automatically refresh every two minutes.


Map Options




Map Legend


Flown Route
Filed Route
Departure Airport
Arrival Airport
Navaid (VOR, NDB)
Fix

Horizontal Profiles

Position Reports

Time Latitude Longitude Heading Altitude Ground
Speed
25-Nov-17 08:16 34.196150 -118.367486 360 734ft 0kts
25-Nov-17 08:17 34.196150 -118.367486 360 734ft 0kts
25-Nov-17 08:18 34.196150 -118.367486 360 734ft 0kts
25-Nov-17 08:19 34.196150 -118.367486 360 734ft 0kts
25-Nov-17 08:20 34.196150 -118.367486 360 734ft 0kts
25-Nov-17 08:21 34.196150 -118.367486 360 734ft 0kts
25-Nov-17 08:22 34.196150 -118.367486 359 734ft 0kts
25-Nov-17 08:23 34.196150 -118.367486 359 734ft 0kts
25-Nov-17 08:24 34.196150 -118.367486 359 734ft 0kts
25-Nov-17 08:25 34.196150 -118.367486 359 734ft 0kts
25-Nov-17 08:26 34.196150 -118.367486 359 734ft 0kts
25-Nov-17 08:27 34.196150 -118.367486 359 734ft 0kts
25-Nov-17 08:28 34.196150 -118.367486 359 734ft 0kts
25-Nov-17 08:29 34.196150 -118.367486 359 734ft 0kts
25-Nov-17 08:30 34.196150 -118.367486 359 734ft 0kts
25-Nov-17 08:31 34.196150 -118.367486 359 734ft 0kts
25-Nov-17 08:32 34.196150 -118.367486 359 734ft 0kts
25-Nov-17 08:33 34.196150 -118.367486 359 734ft 0kts
25-Nov-17 08:34 34.196150 -118.367486 359 734ft 0kts
25-Nov-17 08:35 34.196150 -118.367486 359 734ft 0kts
25-Nov-17 08:36 34.196179 -118.367485 1 734ft 0kts
25-Nov-17 08:37 34.196921 -118.367116 270 734ft 7kts
25-Nov-17 08:38 34.197133 -118.368932 330 734ft 0kts
25-Nov-17 08:39 34.197132 -118.368932 330 734ft 0kts
25-Nov-17 08:40 34.197132 -118.368932 330 734ft 0kts
25-Nov-17 08:41 34.197903 -118.368679 90 734ft 10kts
25-Nov-17 08:42 34.197123 -118.345514 106 1179ft 86kts
25-Nov-17 08:43 34.178557 -118.344691 223 1940ft 82kts
25-Nov-17 08:44 34.161523 -118.363500 223 2661ft 84kts
25-Nov-17 08:45 34.144673 -118.382609 225 3348ft 84kts
25-Nov-17 08:46 34.151602 -118.402603 351 3980ft 85kts
25-Nov-17 08:47 34.174653 -118.405701 351 4658ft 83kts
25-Nov-17 08:48 34.197521 -118.410634 349 5285ft 84kts
25-Nov-17 08:49 34.220541 -118.415504 351 5884ft 85kts
25-Nov-17 08:50 34.244171 -118.418390 352 6463ft 86kts
25-Nov-17 08:51 34.267775 -118.422483 351 7023ft 86kts
25-Nov-17 08:52 34.291513 -118.425321 352 7562ft 86kts
25-Nov-17 08:53 34.315370 -118.428522 350 8078ft 86kts
25-Nov-17 08:54 34.338727 -118.432173 349 8582ft 85kts
25-Nov-17 08:55 34.362523 -118.436067 349 9049ft 86kts
25-Nov-17 08:56 34.386524 -118.439881 351 9493ft 87kts
25-Nov-17 08:57 34.410483 -118.442442 1 9904ft 89kts
25-Nov-17 08:58 34.429706 -118.423022 50 10302ft 94kts
25-Nov-17 08:59 34.446087 -118.398116 50 10701ft 94kts
25-Nov-17 09:00 34.460202 -118.370765 66 11054ft 98kts
25-Nov-17 09:01 34.471999 -118.337850 65 11160ft 114kts
25-Nov-17 09:02 34.485402 -118.300632 65 11100ft 125kts
25-Nov-17 09:03 34.503478 -118.264977 51 11062ft 124kts
25-Nov-17 09:04 34.524114 -118.230988 53 11011ft 124kts
25-Nov-17 09:05 34.544888 -118.197867 50 11040ft 121kts
25-Nov-17 09:06 34.565980 -118.165787 50 11074ft 123kts
25-Nov-17 09:07 34.587216 -118.133107 50 11070ft 124kts
25-Nov-17 09:08 34.609634 -118.100778 52 11030ft 125kts
25-Nov-17 09:09 34.629303 -118.065778 56 10995ft 126kts
25-Nov-17 09:10 34.636210 -118.024895 86 10984ft 126kts
25-Nov-17 09:11 34.641510 -117.982867 83 10963ft 125kts
25-Nov-17 09:12 34.645809 -117.940898 82 10950ft 125kts
25-Nov-17 09:13 34.650936 -117.899175 80 10943ft 124kts
25-Nov-17 09:14 34.655853 -117.857502 85 10931ft 125kts
25-Nov-17 09:15 34.658426 -117.815566 84 10933ft 124kts
25-Nov-17 09:16 34.662896 -117.773835 81 10929ft 124kts
25-Nov-17 09:17 34.672236 -117.733332 72 10923ft 124kts
25-Nov-17 09:18 34.681793 -117.692835 72 10917ft 125kts
25-Nov-17 09:19 34.692261 -117.652743 70 10917ft 124kts
25-Nov-17 09:20 34.704542 -117.613227 71 10912ft 125kts
25-Nov-17 09:21 34.714394 -117.573423 74 10961ft 123kts
25-Nov-17 09:22 34.723290 -117.532688 75 10943ft 125kts
25-Nov-17 09:23 34.733574 -117.492683 70 10985ft 123kts
25-Nov-17 09:24 34.743713 -117.452689 73 10996ft 124kts
25-Nov-17 09:25 34.753286 -117.412405 72 11011ft 124kts
25-Nov-17 09:26 34.763368 -117.372251 72 11021ft 124kts
25-Nov-17 09:27 34.773256 -117.332166 73 11025ft 124kts
25-Nov-17 09:28 34.783338 -117.292049 72 11036ft 124kts
25-Nov-17 09:29 34.794061 -117.252195 69 11042ft 124kts
25-Nov-17 09:30 34.804907 -117.212421 70 11051ft 124kts
25-Nov-17 09:31 34.815232 -117.172421 73 11060ft 124kts
25-Nov-17 09:32 34.825054 -117.131572 72 11019ft 124kts
25-Nov-17 09:33 34.834953 -117.091159 73 11004ft 125kts
25-Nov-17 09:34 34.844746 -117.050805 72 11012ft 124kts
25-Nov-17 09:35 34.855137 -117.010701 70 11021ft 124kts
25-Nov-17 09:36 34.865639 -116.970512 71 11024ft 124kts
25-Nov-17 09:37 34.875942 -116.930240 72 11034ft 124kts
25-Nov-17 09:38 34.885744 -116.889686 71 11043ft 124kts
25-Nov-17 09:39 34.896490 -116.848717 69 10960ft 127kts
25-Nov-17 09:40 34.906825 -116.807804 70 10959ft 125kts
25-Nov-17 09:41 34.917009 -116.766726 72 10917ft 127kts
25-Nov-17 09:42 34.926248 -116.725384 72 10934ft 125kts
25-Nov-17 09:43 34.936809 -116.685079 72 10966ft 126kts
25-Nov-17 09:44 34.945627 -116.643353 70 10959ft 126kts
25-Nov-17 09:45 34.956730 -116.602504 68 10947ft 127kts
25-Nov-17 09:46 34.970030 -116.562554 64 10928ft 128kts
25-Nov-17 09:47 34.985701 -116.524377 59 10984ft 125kts
25-Nov-17 09:48 35.002040 -116.486437 60 11002ft 127kts
25-Nov-17 09:49 35.018450 -116.448367 60 11027ft 128kts
25-Nov-17 09:50 35.035296 -116.409993 59 11033ft 129kts
25-Nov-17 09:51 35.052249 -116.371821 62 11054ft 129kts
25-Nov-17 09:52 35.068124 -116.333936 62 11031ft 130kts
25-Nov-17 09:53 35.085073 -116.295057 60 11011ft 129kts
25-Nov-17 09:54 35.099248 -116.262742 60 10995ft 129kts
25-Nov-17 09:55 35.118644 -116.218987 60 10987ft 128kts
25-Nov-17 09:56 35.135637 -116.181030 60 11038ft 127kts
25-Nov-17 09:57 35.149777 -116.149268 60 11058ft 127kts
25-Nov-17 09:58 35.169209 -116.104480 61 11062ft 129kts
25-Nov-17 09:59 35.185970 -116.065264 62 11031ft 130kts
25-Nov-17 10:00 35.199110 -116.032251 63 11015ft 130kts
25-Nov-17 10:01 35.217776 -115.986006 62 10996ft 129kts
25-Nov-17 10:02 35.231683 -115.953515 60 10982ft 129kts
25-Nov-17 10:03 35.247979 -115.914181 63 10969ft 129kts
25-Nov-17 10:04 35.264192 -115.875019 62 10980ft 128kts
25-Nov-17 10:05 35.280975 -115.836357 60 10980ft 130kts
25-Nov-17 10:06 35.297402 -115.798110 61 11018ft 127kts
25-Nov-17 10:07 35.313922 -115.760518 43 11045ft 124kts
25-Nov-17 10:08 35.338633 -115.730848 39 11037ft 124kts
25-Nov-17 10:09 35.364723 -115.702839 34 11007ft 124kts
25-Nov-17 10:10 35.389993 -115.673320 40 10982ft 126kts
25-Nov-17 10:11 35.415963 -115.644519 43 10913ft 128kts
25-Nov-17 10:12 35.439781 -115.611996 45 10829ft 128kts
25-Nov-17 10:13 35.464731 -115.578549 44 10454ft 139kts
25-Nov-17 10:14 35.490820 -115.542963 43 10067ft 138kts
25-Nov-17 10:15 35.516065 -115.509002 45 9813ft 135kts
25-Nov-17 10:16 35.540380 -115.474885 43 9599ft 130kts
25-Nov-17 10:17 35.566900 -115.444797 38 9354ft 130kts
25-Nov-17 10:18 35.592219 -115.412888 42 9099ft 132kts
25-Nov-17 10:19 35.617472 -115.379230 43 8804ft 135kts
25-Nov-17 10:20 35.643098 -115.345568 44 8441ft 136kts
25-Nov-17 10:21 35.668803 -115.312435 45 8060ft 136kts
25-Nov-17 10:22 35.695101 -115.279173 43 7688ft 135kts
25-Nov-17 10:23 35.719677 -115.244637 43 7370ft 134kts
25-Nov-17 10:24 35.745114 -115.210219 45 6928ft 136kts
25-Nov-17 10:25 35.768516 -115.178176 46 6965ft 120kts
25-Nov-17 10:26 35.796932 -115.164736 3 7016ft 114kts
25-Nov-17 10:27 35.828577 -115.159409 10 6989ft 116kts
25-Nov-17 10:28 35.860090 -115.150208 12 6952ft 117kts
25-Nov-17 10:29 35.891185 -115.140524 11 6963ft 116kts
25-Nov-17 10:30 35.922605 -115.131594 11 6957ft 115kts
25-Nov-17 10:31 35.953774 -115.122574 10 6989ft 113kts
25-Nov-17 10:32 35.984755 -115.113803 10 6986ft 116kts
25-Nov-17 10:33 36.016077 -115.104186 12 6963ft 116kts
25-Nov-17 10:34 36.048376 -115.093126 13 6251ft 122kts
25-Nov-17 10:35 36.079667 -115.084019 12 5588ft 108kts
25-Nov-17 10:36 36.103645 -115.075603 15 4989ft 90kts
25-Nov-17 10:37 36.126819 -115.067705 331 4290ft 85kts
25-Nov-17 10:38 36.137120 -115.091170 292 3795ft 78kts
25-Nov-17 10:39 36.145194 -115.116782 297 3252ft 81kts
25-Nov-17 10:40 36.137820 -115.135040 196 2856ft 85kts
25-Nov-17 10:41 36.117757 -115.146117 205 2592ft 73kts
25-Nov-17 10:42 36.099804 -115.156352 207 2220ft 64kts
25-Nov-17 10:43 36.089369 -115.162433 224 2115ft 16kts
25-Nov-17 10:44 36.089314 -115.163272 295 2115ft 0kts
25-Nov-17 10:45 36.087330 -115.165899 204 2115ft 25kts
25-Nov-17 10:46 36.081549 -115.169275 231 2115ft 12kts
25-Nov-17 10:47 36.081093 -115.170973 106 2115ft 0kts
25-Nov-17 10:48 36.081093 -115.170973 106 2115ft 0kts
25-Nov-17 10:49 36.081093 -115.170973 106 2115ft 0kts
25-Nov-17 10:50 36.081093 -115.170973 106 2115ft 0kts

Navigation Log

Ident Type
1. KBUR Airport
2. IPIHO Fix
3. TWINE Fix
4. LANGE Fix
5. PMD Navaid
6. DAG Navaid
7. JOKUR Fix
8. DANBY Fix
9. SARAS Fix
10. WHIGG Fix
11. CRESO Fix
12. BLD Navaid
13. KLAS Airport